sensor_id;sensor_type;location;lat;lon;timestamp;P1;durP1;ratioP1;P2;durP2;ratioP2
14326;SDS011;7247;53.330;-1.180;2023-11-18T00:00:27;20.97;;;7.43;;
14326;SDS011;7247;53.330;-1.180;2023-11-18T00:02:53;21.87;;;7.73;;
14326;SDS011;7247;53.330;-1.180;2023-11-18T00:05:20;19.27;;;7.30;;
14326;SDS011;7247;53.330;-1.180;2023-11-18T00:07:47;13.70;;;7.37;;
14326;SDS011;7247;53.330;-1.180;2023-11-18T00:10:16;19.60;;;7.00;;
14326;SDS011;7247;53.330;-1.180;2023-11-18T00:12:42;20.43;;;7.63;;
14326;SDS011;7247;53.330;-1.180;2023-11-18T00:15:09;24.07;;;7.33;;
14326;SDS011;7247;53.330;-1.180;2023-11-18T00:17:36;14.77;;;7.03;;
14326;SDS011;7247;53.330;-1.180;2023-11-18T00:20:03;20.40;;;7.13;;
14326;SDS011;7247;53.330;-1.180;2023-11-18T00:22:34;15.03;;;6.60;;
14326;SDS011;7247;53.330;-1.180;2023-11-18T00:25:00;18.47;;;6.73;;
14326;SDS011;7247;53.330;-1.180;2023-11-18T00:27:28;19.83;;;7.00;;
14326;SDS011;7247;53.330;-1.180;2023-11-18T00:29:55;20.83;;;7.07;;
14326;SDS011;7247;53.330;-1.180;2023-11-18T00:32:21;20.17;;;6.53;;
14326;SDS011;7247;53.330;-1.180;2023-11-18T00:34:48;20.60;;;6.27;;
14326;SDS011;7247;53.330;-1.180;2023-11-18T00:37:14;19.57;;;6.97;;
14326;SDS011;7247;53.330;-1.180;2023-11-18T00:39:40;14.57;;;6.80;;
14326;SDS011;7247;53.330;-1.180;2023-11-18T00:42:07;18.27;;;6.77;;
14326;SDS011;7247;53.330;-1.180;2023-11-18T00:44:35;23.57;;;6.83;;
14326;SDS011;7247;53.330;-1.180;2023-11-18T00:47:01;16.37;;;7.13;;
14326;SDS011;7247;53.330;-1.180;2023-11-18T00:49:27;17.47;;;7.10;;
14326;SDS011;7247;53.330;-1.180;2023-11-18T00:51:55;22.37;;;7.27;;
14326;SDS011;7247;53.330;-1.180;2023-11-18T00:54:21;17.60;;;7.30;;
14326;SDS011;7247;53.330;-1.180;2023-11-18T00:56:48;21.07;;;7.60;;
14326;SDS011;7247;53.330;-1.180;2023-11-18T00:59:14;17.67;;;6.90;;
14326;SDS011;7247;53.330;-1.180;2023-11-18T01:01:42;19.80;;;6.87;;
14326;SDS011;7247;53.330;-1.180;2023-11-18T01:04:08;17.37;;;6.80;;
14326;SDS011;7247;53.330;-1.180;2023-11-18T01:06:35;17.27;;;6.50;;
14326;SDS011;7247;53.330;-1.180;2023-11-18T01:09:01;20.60;;;7.20;;
14326;SDS011;7247;53.330;-1.180;2023-11-18T01:11:28;22.07;;;6.77;;
14326;SDS011;7247;53.330;-1.180;2023-11-18T01:13:55;16.33;;;6.50;;
14326;SDS011;7247;53.330;-1.180;2023-11-18T01:16:21;16.57;;;5.67;;
14326;SDS011;7247;53.330;-1.180;2023-11-18T01:18:50;16.23;;;6.67;;
14326;SDS011;7247;53.330;-1.180;2023-11-18T01:21:16;17.53;;;6.03;;
14326;SDS011;7247;53.330;-1.180;2023-11-18T01:23:43;24.70;;;6.80;;
14326;SDS011;7247;53.330;-1.180;2023-11-18T01:26:10;18.00;;;5.57;;
14326;SDS011;7247;53.330;-1.180;2023-11-18T01:28:38;12.33;;;5.70;;
14326;SDS011;7247;53.330;-1.180;2023-11-18T01:31:07;22.43;;;6.13;;
14326;SDS011;7247;53.330;-1.180;2023-11-18T01:33:34;16.87;;;5.93;;
14326;SDS011;7247;53.330;-1.180;2023-11-18T01:36:03;18.63;;;6.10;;
14326;SDS011;7247;53.330;-1.180;2023-11-18T01:38:30;19.90;;;5.87;;
14326;SDS011;7247;53.330;-1.180;2023-11-18T01:40:56;16.47;;;5.83;;
14326;SDS011;7247;53.330;-1.180;2023-11-18T01:43:25;14.00;;;5.37;;
14326;SDS011;7247;53.330;-1.180;2023-11-18T01:45:52;16.67;;;5.93;;
14326;SDS011;7247;53.330;-1.180;2023-11-18T01:48:19;22.37;;;6.47;;
14326;SDS011;7247;53.330;-1.180;2023-11-18T01:50:47;13.60;;;5.43;;
14326;SDS011;7247;53.330;-1.180;2023-11-18T01:53:15;16.20;;;5.93;;
14326;SDS011;7247;53.330;-1.180;2023-11-18T01:55:42;19.00;;;6.23;;
14326;SDS011;7247;53.330;-1.180;2023-11-18T01:58:08;16.97;;;5.87;;
14326;SDS011;7247;53.330;-1.180;2023-11-18T02:00:35;15.80;;;5.87;;
14326;SDS011;7247;53.330;-1.180;2023-11-18T02:03:03;14.53;;;6.10;;
14326;SDS011;7247;53.330;-1.180;2023-11-18T02:05:30;15.77;;;6.80;;
14326;SDS011;7247;53.330;-1.180;2023-11-18T02:07:58;18.57;;;6.10;;
14326;SDS011;7247;53.330;-1.180;2023-11-18T02:10:26;11.70;;;5.93;;
14326;SDS011;7247;53.330;-1.180;2023-11-18T02:12:55;11.80;;;5.67;;
14326;SDS011;7247;53.330;-1.180;2023-11-18T02:15:24;13.27;;;5.93;;
14326;SDS011;7247;53.330;-1.180;2023-11-18T02:17:52;17.37;;;5.53;;
14326;SDS011;7247;53.330;-1.180;2023-11-18T02:20:19;14.03;;;5.60;;
14326;SDS011;7247;53.330;-1.180;2023-11-18T02:22:46;14.43;;;5.57;;
14326;SDS011;7247;53.330;-1.180;2023-11-18T02:25:14;11.50;;;5.07;;
14326;SDS011;7247;53.330;-1.180;2023-11-18T02:27:43;9.83;;;4.47;;
14326;SDS011;7247;53.330;-1.180;2023-11-18T02:30:10;9.80;;;3.80;;
14326;SDS011;7247;53.330;-1.180;2023-11-18T02:32:39;14.53;;;4.67;;
14326;SDS011;7247;53.330;-1.180;2023-11-18T02:35:10;15.70;;;4.30;;
14326;SDS011;7247;53.330;-1.180;2023-11-18T02:37:38;9.90;;;4.43;;
14326;SDS011;7247;53.330;-1.180;2023-11-18T02:40:07;10.70;;;4.27;;
14326;SDS011;7247;53.330;-1.180;2023-11-18T02:42:39;10.80;;;4.40;;
14326;SDS011;7247;53.330;-1.180;2023-11-18T02:45:13;14.27;;;5.17;;
14326;SDS011;7247;53.330;-1.180;2023-11-18T02:47:41;16.03;;;5.80;;
14326;SDS011;7247;53.330;-1.180;2023-11-18T02:50:08;14.67;;;5.77;;
14326;SDS011;7247;53.330;-1.180;2023-11-18T02:52:36;11.37;;;5.67;;
14326;SDS011;7247;53.330;-1.180;2023-11-18T02:55:03;13.43;;;5.23;;
14326;SDS011;7247;53.330;-1.180;2023-11-18T02:57:31;11.67;;;4.47;;
14326;SDS011;7247;53.330;-1.180;2023-11-18T02:59:57;14.53;;;5.30;;
14326;SDS011;7247;53.330;-1.180;2023-11-18T03:02:26;11.40;;;4.63;;
14326;SDS011;7247;53.330;-1.180;2023-11-18T03:04:55;12.20;;;4.47;;
14326;SDS011;7247;53.330;-1.180;2023-11-18T03:07:22;15.47;;;5.10;;
14326;SDS011;7247;53.330;-1.180;2023-11-18T03:09:48;9.17;;;4.23;;
14326;SDS011;7247;53.330;-1.180;2023-11-18T03:12:14;9.47;;;4.40;;
14326;SDS011;7247;53.330;-1.180;2023-11-18T03:14:41;10.93;;;4.73;;
14326;SDS011;7247;53.330;-1.180;2023-11-18T03:17:08;9.57;;;4.30;;
14326;SDS011;7247;53.330;-1.180;2023-11-18T03:19:36;13.77;;;4.10;;
14326;SDS011;7247;53.330;-1.180;2023-11-18T03:22:02;8.53;;;3.83;;
14326;SDS011;7247;53.330;-1.180;2023-11-18T03:24:29;6.20;;;3.70;;
14326;SDS011;7247;53.330;-1.180;2023-11-18T03:26:55;6.90;;;3.73;;
14326;SDS011;7247;53.330;-1.180;2023-11-18T03:29:22;8.17;;;3.10;;
14326;SDS011;7247;53.330;-1.180;2023-11-18T03:31:49;8.10;;;3.00;;
14326;SDS011;7247;53.330;-1.180;2023-11-18T03:34:15;11.00;;;3.47;;
14326;SDS011;7247;53.330;-1.180;2023-11-18T03:36:45;6.60;;;3.30;;
14326;SDS011;7247;53.330;-1.180;2023-11-18T03:39:12;6.73;;;3.37;;
14326;SDS011;7247;53.330;-1.180;2023-11-18T03:41:39;9.00;;;3.80;;
14326;SDS011;7247;53.330;-1.180;2023-11-18T03:44:05;7.83;;;3.53;;
14326;SDS011;7247;53.330;-1.180;2023-11-18T03:46:32;4.27;;;3.17;;
14326;SDS011;7247;53.330;-1.180;2023-11-18T03:48:59;8.50;;;3.33;;
14326;SDS011;7247;53.330;-1.180;2023-11-18T03:51:25;6.10;;;3.33;;
14326;SDS011;7247;53.330;-1.180;2023-11-18T03:53:53;6.60;;;3.57;;
14326;SDS011;7247;53.330;-1.180;2023-11-18T03:56:20;5.83;;;3.07;;
14326;SDS011;7247;53.330;-1.180;2023-11-18T03:58:46;6.13;;;3.00;;
14326;SDS011;7247;53.330;-1.180;2023-11-18T04:01:19;6.60;;;3.20;;
14326;SDS011;7247;53.330;-1.180;2023-11-18T04:03:45;3.20;;;2.80;;
14326;SDS011;7247;53.330;-1.180;2023-11-18T04:06:11;5.57;;;3.00;;
14326;SDS011;7247;53.330;-1.180;2023-11-18T04:08:39;5.13;;;3.50;;
14326;SDS011;7247;53.330;-1.180;2023-11-18T04:11:09;4.50;;;3.50;;
14326;SDS011;7247;53.330;-1.180;2023-11-18T04:13:36;6.13;;;3.23;;
14326;SDS011;7247;53.330;-1.180;2023-11-18T04:16:02;4.57;;;3.30;;
14326;SDS011;7247;53.330;-1.180;2023-11-18T04:18:29;4.53;;;2.97;;
14326;SDS011;7247;53.330;-1.180;2023-11-18T04:20:56;3.73;;;2.97;;
14326;SDS011;7247;53.330;-1.180;2023-11-18T04:23:23;4.37;;;2.67;;
14326;SDS011;7247;53.330;-1.180;2023-11-18T04:25:49;4.37;;;2.63;;
14326;SDS011;7247;53.330;-1.180;2023-11-18T04:28:18;4.30;;;2.80;;
14326;SDS011;7247;53.330;-1.180;2023-11-18T04:30:44;4.97;;;2.90;;
14326;SDS011;7247;53.330;-1.180;2023-11-18T04:33:11;4.00;;;2.67;;
14326;SDS011;7247;53.330;-1.180;2023-11-18T04:35:39;5.10;;;2.70;;
14326;SDS011;7247;53.330;-1.180;2023-11-18T04:38:05;4.07;;;2.30;;
14326;SDS011;7247;53.330;-1.180;2023-11-18T04:40:32;3.13;;;2.40;;
14326;SDS011;7247;53.330;-1.180;2023-11-18T04:42:59;3.73;;;2.13;;
14326;SDS011;7247;53.330;-1.180;2023-11-18T04:45:27;5.27;;;2.47;;
14326;SDS011;7247;53.330;-1.180;2023-11-18T04:47:55;3.80;;;2.40;;
14326;SDS011;7247;53.330;-1.180;2023-11-18T04:50:21;2.90;;;2.60;;
14326;SDS011;7247;53.330;-1.180;2023-11-18T04:52:48;5.60;;;3.10;;
14326;SDS011;7247;53.330;-1.180;2023-11-18T04:55:16;4.87;;;3.37;;
14326;SDS011;7247;53.330;-1.180;2023-11-18T04:57:43;4.00;;;3.60;;
14326;SDS011;7247;53.330;-1.180;2023-11-18T05:00:10;6.13;;;3.60;;
14326;SDS011;7247;53.330;-1.180;2023-11-18T05:02:38;4.97;;;3.20;;
14326;SDS011;7247;53.330;-1.180;2023-11-18T05:05:05;4.20;;;3.40;;
14326;SDS011;7247;53.330;-1.180;2023-11-18T05:07:32;4.23;;;3.10;;
14326;SDS011;7247;53.330;-1.180;2023-11-18T05:09:58;3.97;;;3.40;;
14326;SDS011;7247;53.330;-1.180;2023-11-18T05:12:24;4.83;;;3.20;;
14326;SDS011;7247;53.330;-1.180;2023-11-18T05:14:51;4.60;;;3.57;;
14326;SDS011;7247;53.330;-1.180;2023-11-18T05:17:17;6.97;;;3.20;;
14326;SDS011;7247;53.330;-1.180;2023-11-18T05:19:45;4.37;;;3.33;;
14326;SDS011;7247;53.330;-1.180;2023-11-18T05:22:12;3.67;;;3.10;;
14326;SDS011;7247;53.330;-1.180;2023-11-18T05:24:38;4.13;;;3.20;;
14326;SDS011;7247;53.330;-1.180;2023-11-18T05:27:05;3.47;;;2.80;;
14326;SDS011;7247;53.330;-1.180;2023-11-18T05:29:32;3.23;;;2.93;;
14326;SDS011;7247;53.330;-1.180;2023-11-18T05:31:59;4.43;;;2.83;;
14326;SDS011;7247;53.330;-1.180;2023-11-18T05:34:25;6.03;;;3.10;;
14326;SDS011;7247;53.330;-1.180;2023-11-18T05:36:53;3.97;;;3.20;;
14326;SDS011;7247;53.330;-1.180;2023-11-18T05:39:20;6.77;;;3.30;;
14326;SDS011;7247;53.330;-1.180;2023-11-18T05:41:46;3.07;;;2.80;;
14326;SDS011;7247;53.330;-1.180;2023-11-18T05:44:15;4.70;;;3.60;;
14326;SDS011;7247;53.330;-1.180;2023-11-18T05:46:44;3.53;;;3.23;;
14326;SDS011;7247;53.330;-1.180;2023-11-18T05:49:11;4.47;;;3.00;;
14326;SDS011;7247;53.330;-1.180;2023-11-18T05:51:38;5.67;;;3.37;;
14326;SDS011;7247;53.330;-1.180;2023-11-18T05:54:07;3.40;;;3.10;;
14326;SDS011;7247;53.330;-1.180;2023-11-18T05:56:33;2.80;;;2.50;;
14326;SDS011;7247;53.330;-1.180;2023-11-18T05:58:59;3.00;;;2.33;;
14326;SDS011;7247;53.330;-1.180;2023-11-18T06:01:28;3.50;;;2.70;;
14326;SDS011;7247;53.330;-1.180;2023-11-18T06:03:55;2.50;;;2.30;;
14326;SDS011;7247;53.330;-1.180;2023-11-18T06:06:22;3.30;;;2.00;;
14326;SDS011;7247;53.330;-1.180;2023-11-18T06:08:49;2.00;;;1.77;;
14326;SDS011;7247;53.330;-1.180;2023-11-18T06:11:17;2.07;;;1.87;;
14326;SDS011;7247;53.330;-1.180;2023-11-18T06:13:44;1.70;;;1.60;;
14326;SDS011;7247;53.330;-1.180;2023-11-18T06:16:15;2.07;;;1.53;;
14326;SDS011;7247;53.330;-1.180;2023-11-18T06:18:41;1.90;;;1.70;;
14326;SDS011;7247;53.330;-1.180;2023-11-18T06:21:10;1.60;;;1.50;;
14326;SDS011;7247;53.330;-1.180;2023-11-18T06:23:36;1.50;;;1.40;;
14326;SDS011;7247;53.330;-1.180;2023-11-18T06:26:03;1.60;;;1.50;;
14326;SDS011;7247;53.330;-1.180;2023-11-18T06:28:31;1.77;;;1.67;;
14326;SDS011;7247;53.330;-1.180;2023-11-18T06:30:58;2.00;;;1.80;;
14326;SDS011;7247;53.330;-1.180;2023-11-18T06:33:26;2.97;;;1.80;;
14326;SDS011;7247;53.330;-1.180;2023-11-18T06:35:52;3.83;;;2.00;;
14326;SDS011;7247;53.330;-1.180;2023-11-18T06:38:21;2.27;;;1.87;;
14326;SDS011;7247;53.330;-1.180;2023-11-18T06:40:47;2.50;;;1.80;;
14326;SDS011;7247;53.330;-1.180;2023-11-18T06:43:17;2.20;;;1.87;;
14326;SDS011;7247;53.330;-1.180;2023-11-18T06:45:45;1.97;;;1.80;;
14326;SDS011;7247;53.330;-1.180;2023-11-18T06:48:12;1.87;;;1.73;;
14326;SDS011;7247;53.330;-1.180;2023-11-18T06:50:39;2.70;;;1.97;;
14326;SDS011;7247;53.330;-1.180;2023-11-18T06:53:09;3.03;;;2.00;;
14326;SDS011;7247;53.330;-1.180;2023-11-18T06:55:36;2.00;;;1.90;;
14326;SDS011;7247;53.330;-1.180;2023-11-18T06:58:03;4.10;;;1.77;;
14326;SDS011;7247;53.330;-1.180;2023-11-18T07:00:29;2.17;;;1.80;;
14326;SDS011;7247;53.330;-1.180;2023-11-18T07:02:57;2.07;;;1.97;;
14326;SDS011;7247;53.330;-1.180;2023-11-18T07:05:23;2.13;;;2.00;;
14326;SDS011;7247;53.330;-1.180;2023-11-18T07:07:50;1.97;;;1.87;;
14326;SDS011;7247;53.330;-1.180;2023-11-18T07:10:16;3.43;;;2.13;;
14326;SDS011;7247;53.330;-1.180;2023-11-18T07:12:46;2.40;;;2.10;;
14326;SDS011;7247;53.330;-1.180;2023-11-18T07:15:13;2.50;;;2.30;;
14326;SDS011;7247;53.330;-1.180;2023-11-18T07:17:39;2.30;;;2.10;;
14326;SDS011;7247;53.330;-1.180;2023-11-18T07:20:07;2.23;;;2.03;;
14326;SDS011;7247;53.330;-1.180;2023-11-18T07:22:36;3.20;;;2.57;;
14326;SDS011;7247;53.330;-1.180;2023-11-18T07:25:03;2.90;;;2.60;;
14326;SDS011;7247;53.330;-1.180;2023-11-18T07:27:33;2.67;;;2.47;;
14326;SDS011;7247;53.330;-1.180;2023-11-18T07:30:00;2.83;;;2.63;;
14326;SDS011;7247;53.330;-1.180;2023-11-18T07:32:26;3.23;;;2.70;;
14326;SDS011;7247;53.330;-1.180;2023-11-18T07:34:53;3.43;;;2.80;;
14326;SDS011;7247;53.330;-1.180;2023-11-18T07:37:22;5.57;;;3.27;;
14326;SDS011;7247;53.330;-1.180;2023-11-18T07:39:48;4.17;;;3.37;;
14326;SDS011;7247;53.330;-1.180;2023-11-18T07:42:15;4.10;;;3.50;;
14326;SDS011;7247;53.330;-1.180;2023-11-18T07:44:43;3.90;;;3.37;;
14326;SDS011;7247;53.330;-1.180;2023-11-18T07:47:09;4.73;;;3.43;;
14326;SDS011;7247;53.330;-1.180;2023-11-18T07:49:36;4.20;;;3.87;;
14326;SDS011;7247;53.330;-1.180;2023-11-18T07:52:03;3.77;;;3.47;;
14326;SDS011;7247;53.330;-1.180;2023-11-18T07:54:32;4.40;;;3.87;;
14326;SDS011;7247;53.330;-1.180;2023-11-18T07:56:59;4.90;;;4.50;;
14326;SDS011;7247;53.330;-1.180;2023-11-18T07:59:25;5.23;;;4.67;;
14326;SDS011;7247;53.330;-1.180;2023-11-18T08:01:52;7.47;;;4.53;;
14326;SDS011;7247;53.330;-1.180;2023-11-18T08:04:19;5.40;;;4.90;;
14326;SDS011;7247;53.330;-1.180;2023-11-18T08:06:46;5.77;;;5.00;;
14326;SDS011;7247;53.330;-1.180;2023-11-18T08:09:13;5.90;;;5.30;;
14326;SDS011;7247;53.330;-1.180;2023-11-18T08:11:46;6.03;;;5.43;;
14326;SDS011;7247;53.330;-1.180;2023-11-18T08:14:12;6.63;;;6.00;;
14326;SDS011;7247;53.330;-1.180;2023-11-18T08:16:38;6.43;;;5.67;;
14326;SDS011;7247;53.330;-1.180;2023-11-18T08:19:05;7.00;;;6.33;;
14326;SDS011;7247;53.330;-1.180;2023-11-18T08:21:33;8.40;;;7.20;;
14326;SDS011;7247;53.330;-1.180;2023-11-18T08:23:59;9.10;;;8.00;;
14326;SDS011;7247;53.330;-1.180;2023-11-18T08:26:29;10.20;;;8.33;;
14326;SDS011;7247;53.330;-1.180;2023-11-18T08:28:57;15.07;;;10.23;;
14326;SDS011;7247;53.330;-1.180;2023-11-18T08:31:23;15.03;;;10.87;;
14326;SDS011;7247;53.330;-1.180;2023-11-18T08:33:50;17.60;;;11.03;;
14326;SDS011;7247;53.330;-1.180;2023-11-18T08:36:19;13.27;;;9.77;;
14326;SDS011;7247;53.330;-1.180;2023-11-18T08:38:47;13.43;;;10.30;;
14326;SDS011;7247;53.330;-1.180;2023-11-18T08:41:14;12.10;;;9.17;;
14326;SDS011;7247;53.330;-1.180;2023-11-18T08:43:40;13.17;;;8.50;;
14326;SDS011;7247;53.330;-1.180;2023-11-18T08:46:08;11.50;;;8.23;;
14326;SDS011;7247;53.330;-1.180;2023-11-18T08:48:35;8.87;;;7.97;;
14326;SDS011;7247;53.330;-1.180;2023-11-18T08:51:03;9.80;;;8.37;;
14326;SDS011;7247;53.330;-1.180;2023-11-18T08:53:33;9.20;;;8.13;;
14326;SDS011;7247;53.330;-1.180;2023-11-18T08:56:06;9.33;;;8.00;;
14326;SDS011;7247;53.330;-1.180;2023-11-18T08:58:33;10.77;;;8.53;;
14326;SDS011;7247;53.330;-1.180;2023-11-18T09:01:00;10.07;;;8.07;;
14326;SDS011;7247;53.330;-1.180;2023-11-18T09:03:32;10.20;;;8.40;;
14326;SDS011;7247;53.330;-1.180;2023-11-18T09:06:01;10.40;;;8.00;;
14326;SDS011;7247;53.330;-1.180;2023-11-18T09:08:29;9.60;;;8.37;;
14326;SDS011;7247;53.330;-1.180;2023-11-18T09:10:57;8.30;;;7.30;;
14326;SDS011;7247;53.330;-1.180;2023-11-18T09:13:25;9.87;;;8.00;;
14326;SDS011;7247;53.330;-1.180;2023-11-18T09:15:54;9.43;;;8.33;;
14326;SDS011;7247;53.330;-1.180;2023-11-18T09:18:21;9.90;;;8.07;;
14326;SDS011;7247;53.330;-1.180;2023-11-18T09:20:49;10.80;;;8.87;;
14326;SDS011;7247;53.330;-1.180;2023-11-18T09:23:15;10.23;;;8.53;;
14326;SDS011;7247;53.330;-1.180;2023-11-18T09:25:42;11.87;;;8.73;;
14326;SDS011;7247;53.330;-1.180;2023-11-18T09:28:11;13.23;;;8.37;;
14326;SDS011;7247;53.330;-1.180;2023-11-18T09:30:39;9.57;;;7.90;;
14326;SDS011;7247;53.330;-1.180;2023-11-18T09:33:14;10.50;;;8.00;;
14326;SDS011;7247;53.330;-1.180;2023-11-18T09:35:51;9.03;;;7.90;;
14326;SDS011;7247;53.330;-1.180;2023-11-18T09:38:21;8.70;;;7.67;;
14326;SDS011;7247;53.330;-1.180;2023-11-18T09:40:47;8.80;;;7.53;;
14326;SDS011;7247;53.330;-1.180;2023-11-18T09:43:15;9.70;;;7.83;;
14326;SDS011;7247;53.330;-1.180;2023-11-18T09:45:43;9.43;;;7.47;;
14326;SDS011;7247;53.330;-1.180;2023-11-18T09:48:10;8.97;;;7.40;;
14326;SDS011;7247;53.330;-1.180;2023-11-18T09:50:42;10.93;;;8.40;;
14326;SDS011;7247;53.330;-1.180;2023-11-18T09:53:11;10.43;;;7.87;;
14326;SDS011;7247;53.330;-1.180;2023-11-18T09:55:38;9.23;;;7.43;;
14326;SDS011;7247;53.330;-1.180;2023-11-18T09:58:06;9.37;;;7.80;;
14326;SDS011;7247;53.330;-1.180;2023-11-18T10:00:38;9.80;;;7.77;;
14326;SDS011;7247;53.330;-1.180;2023-11-18T10:03:07;9.70;;;7.63;;
14326;SDS011;7247;53.330;-1.180;2023-11-18T10:05:37;9.93;;;8.17;;
14326;SDS011;7247;53.330;-1.180;2023-11-18T10:08:07;9.20;;;8.00;;
14326;SDS011;7247;53.330;-1.180;2023-11-18T10:10:35;11.03;;;9.10;;
14326;SDS011;7247;53.330;-1.180;2023-11-18T10:13:02;11.40;;;8.60;;
14326;SDS011;7247;53.330;-1.180;2023-11-18T10:15:30;11.60;;;9.53;;
14326;SDS011;7247;53.330;-1.180;2023-11-18T10:17:57;10.97;;;8.77;;
14326;SDS011;7247;53.330;-1.180;2023-11-18T10:20:42;11.10;;;9.30;;
14326;SDS011;7247;53.330;-1.180;2023-11-18T10:23:10;11.10;;;8.67;;
14326;SDS011;7247;53.330;-1.180;2023-11-18T10:25:38;11.97;;;9.90;;
14326;SDS011;7247;53.330;-1.180;2023-11-18T10:28:08;12.17;;;9.60;;
14326;SDS011;7247;53.330;-1.180;2023-11-18T10:30:46;12.30;;;9.07;;
14326;SDS011;7247;53.330;-1.180;2023-11-18T10:33:14;12.03;;;9.47;;
14326;SDS011;7247;53.330;-1.180;2023-11-18T10:35:48;10.83;;;9.03;;
14326;SDS011;7247;53.330;-1.180;2023-11-18T10:38:16;11.97;;;9.47;;
14326;SDS011;7247;53.330;-1.180;2023-11-18T10:40:43;11.40;;;9.50;;
14326;SDS011;7247;53.330;-1.180;2023-11-18T10:43:10;13.07;;;9.93;;
14326;SDS011;7247;53.330;-1.180;2023-11-18T10:45:36;11.87;;;9.53;;
14326;SDS011;7247;53.330;-1.180;2023-11-18T10:48:04;12.63;;;9.77;;
14326;SDS011;7247;53.330;-1.180;2023-11-18T10:50:31;10.77;;;9.23;;
14326;SDS011;7247;53.330;-1.180;2023-11-18T10:52:57;12.77;;;9.97;;
14326;SDS011;7247;53.330;-1.180;2023-11-18T10:55:34;12.23;;;9.07;;
14326;SDS011;7247;53.330;-1.180;2023-11-18T10:58:01;10.43;;;9.30;;
14326;SDS011;7247;53.330;-1.180;2023-11-18T11:00:29;11.23;;;10.03;;
14326;SDS011;7247;53.330;-1.180;2023-11-18T11:02:58;11.23;;;10.03;;
14326;SDS011;7247;53.330;-1.180;2023-11-18T11:05:27;11.83;;;9.73;;
14326;SDS011;7247;53.330;-1.180;2023-11-18T11:07:57;11.70;;;10.10;;
14326;SDS011;7247;53.330;-1.180;2023-11-18T11:10:24;12.63;;;10.17;;
14326;SDS011;7247;53.330;-1.180;2023-11-18T11:12:53;12.20;;;9.60;;
14326;SDS011;7247;53.330;-1.180;2023-11-18T11:15:22;9.93;;;8.83;;
14326;SDS011;7247;53.330;-1.180;2023-11-18T11:17:52;9.37;;;8.47;;
14326;SDS011;7247;53.330;-1.180;2023-11-18T11:20:21;8.80;;;7.90;;
14326;SDS011;7247;53.330;-1.180;2023-11-18T11:22:55;8.80;;;7.93;;
14326;SDS011;7247;53.330;-1.180;2023-11-18T11:25:25;7.90;;;7.10;;
14326;SDS011;7247;53.330;-1.180;2023-11-18T11:27:56;8.63;;;7.73;;
14326;SDS011;7247;53.330;-1.180;2023-11-18T11:30:29;7.70;;;7.00;;
14326;SDS011;7247;53.330;-1.180;2023-11-18T11:33:04;7.73;;;6.93;;
14326;SDS011;7247;53.330;-1.180;2023-11-18T11:35:37;6.97;;;6.33;;
14326;SDS011;7247;53.330;-1.180;2023-11-18T11:38:07;6.67;;;6.17;;
14326;SDS011;7247;53.330;-1.180;2023-11-18T11:40:38;6.90;;;6.13;;
14326;SDS011;7247;53.330;-1.180;2023-11-18T11:43:08;6.70;;;5.10;;
14326;SDS011;7247;53.330;-1.180;2023-11-18T11:45:37;5.77;;;4.87;;
14326;SDS011;7247;53.330;-1.180;2023-11-18T11:48:06;4.63;;;4.20;;
14326;SDS011;7247;53.330;-1.180;2023-11-18T11:50:44;4.47;;;4.00;;
14326;SDS011;7247;53.330;-1.180;2023-11-18T11:53:15;3.50;;;3.20;;
14326;SDS011;7247;53.330;-1.180;2023-11-18T11:55:46;3.87;;;2.80;;
14326;SDS011;7247;53.330;-1.180;2023-11-18T11:58:26;2.53;;;2.33;;
14326;SDS011;7247;53.330;-1.180;2023-11-18T12:00:53;2.53;;;2.00;;
14326;SDS011;7247;53.330;-1.180;2023-11-18T12:03:21;2.50;;;1.73;;
14326;SDS011;7247;53.330;-1.180;2023-11-18T12:05:48;2.33;;;1.40;;
14326;SDS011;7247;53.330;-1.180;2023-11-18T12:08:16;2.13;;;1.33;;
14326;SDS011;7247;53.330;-1.180;2023-11-18T12:10:50;1.43;;;1.33;;
14326;SDS011;7247;53.330;-1.180;2023-11-18T12:13:17;2.63;;;1.23;;
14326;SDS011;7247;53.330;-1.180;2023-11-18T12:15:48;2.37;;;1.40;;
14326;SDS011;7247;53.330;-1.180;2023-11-18T12:18:20;2.23;;;1.40;;
14326;SDS011;7247;53.330;-1.180;2023-11-18T12:20:46;4.03;;;1.60;;
14326;SDS011;7247;53.330;-1.180;2023-11-18T12:23:13;1.80;;;1.40;;
14326;SDS011;7247;53.330;-1.180;2023-11-18T12:25:40;3.63;;;1.40;;
14326;SDS011;7247;53.330;-1.180;2023-11-18T12:28:07;1.70;;;1.30;;
14326;SDS011;7247;53.330;-1.180;2023-11-18T12:30:39;2.50;;;1.40;;
14326;SDS011;7247;53.330;-1.180;2023-11-18T12:33:16;2.33;;;1.27;;
14326;SDS011;7247;53.330;-1.180;2023-11-18T12:35:51;2.87;;;1.37;;
14326;SDS011;7247;53.330;-1.180;2023-11-18T12:38:38;2.97;;;1.60;;
14326;SDS011;7247;53.330;-1.180;2023-11-18T12:41:15;2.60;;;1.40;;
14326;SDS011;7247;53.330;-1.180;2023-11-18T12:43:48;2.70;;;1.67;;
14326;SDS011;7247;53.330;-1.180;2023-11-18T12:46:41;5.13;;;1.80;;
14326;SDS011;7247;53.330;-1.180;2023-11-18T12:49:15;2.03;;;1.60;;
14326;SDS011;7247;53.330;-1.180;2023-11-18T12:51:43;4.27;;;1.80;;
14326;SDS011;7247;53.330;-1.180;2023-11-18T12:54:11;2.97;;;1.40;;
14326;SDS011;7247;53.330;-1.180;2023-11-18T12:56:38;2.17;;;1.20;;
14326;SDS011;7247;53.330;-1.180;2023-11-18T12:59:05;2.77;;;1.60;;
14326;SDS011;7247;53.330;-1.180;2023-11-18T13:01:32;2.90;;;1.53;;
14326;SDS011;7247;53.330;-1.180;2023-11-18T13:04:01;3.80;;;1.40;;
14326;SDS011;7247;53.330;-1.180;2023-11-18T13:06:27;3.23;;;1.50;;
14326;SDS011;7247;53.330;-1.180;2023-11-18T13:08:55;2.23;;;1.60;;
14326;SDS011;7247;53.330;-1.180;2023-11-18T13:11:23;3.67;;;1.50;;
14326;SDS011;7247;53.330;-1.180;2023-11-18T13:13:50;5.13;;;1.60;;
14326;SDS011;7247;53.330;-1.180;2023-11-18T13:16:17;3.70;;;1.60;;
14326;SDS011;7247;53.330;-1.180;2023-11-18T13:18:43;4.30;;;1.53;;
14326;SDS011;7247;53.330;-1.180;2023-11-18T13:21:15;5.23;;;1.60;;
14326;SDS011;7247;53.330;-1.180;2023-11-18T13:23:45;5.63;;;1.70;;
14326;SDS011;7247;53.330;-1.180;2023-11-18T13:26:13;4.13;;;1.50;;
14326;SDS011;7247;53.330;-1.180;2023-11-18T13:28:40;5.60;;;1.77;;
14326;SDS011;7247;53.330;-1.180;2023-11-18T13:31:07;5.53;;;1.63;;
14326;SDS011;7247;53.330;-1.180;2023-11-18T13:33:36;4.47;;;1.57;;
14326;SDS011;7247;53.330;-1.180;2023-11-18T13:36:03;5.10;;;1.70;;
14326;SDS011;7247;53.330;-1.180;2023-11-18T13:38:30;4.97;;;1.53;;
14326;SDS011;7247;53.330;-1.180;2023-11-18T13:40:57;5.13;;;1.60;;
14326;SDS011;7247;53.330;-1.180;2023-11-18T13:43:24;5.17;;;1.70;;
14326;SDS011;7247;53.330;-1.180;2023-11-18T13:45:51;5.97;;;1.70;;
14326;SDS011;7247;53.330;-1.180;2023-11-18T13:48:18;4.60;;;1.93;;
14326;SDS011;7247;53.330;-1.180;2023-11-18T13:50:44;6.80;;;2.00;;
14326;SDS011;7247;53.330;-1.180;2023-11-18T13:53:11;7.77;;;1.90;;
14326;SDS011;7247;53.330;-1.180;2023-11-18T13:55:38;5.97;;;1.70;;
14326;SDS011;7247;53.330;-1.180;2023-11-18T13:58:05;7.93;;;2.20;;
14326;SDS011;7247;53.330;-1.180;2023-11-18T14:00:33;7.73;;;1.97;;
14326;SDS011;7247;53.330;-1.180;2023-11-18T14:03:01;6.17;;;1.87;;
14326;SDS011;7247;53.330;-1.180;2023-11-18T14:05:29;5.80;;;2.07;;
14326;SDS011;7247;53.330;-1.180;2023-11-18T14:07:59;7.47;;;2.30;;
14326;SDS011;7247;53.330;-1.180;2023-11-18T14:10:25;5.10;;;1.50;;
14326;SDS011;7247;53.330;-1.180;2023-11-18T14:12:58;5.10;;;2.00;;
14326;SDS011;7247;53.330;-1.180;2023-11-18T14:15:25;2.77;;;1.40;;
14326;SDS011;7247;53.330;-1.180;2023-11-18T14:17:52;5.50;;;1.90;;
14326;SDS011;7247;53.330;-1.180;2023-11-18T14:20:19;5.67;;;1.80;;
14326;SDS011;7247;53.330;-1.180;2023-11-18T14:22:47;4.30;;;1.87;;
14326;SDS011;7247;53.330;-1.180;2023-11-18T14:25:14;3.87;;;1.60;;
14326;SDS011;7247;53.330;-1.180;2023-11-18T14:27:40;2.90;;;1.53;;
14326;SDS011;7247;53.330;-1.180;2023-11-18T14:30:07;3.20;;;1.40;;
14326;SDS011;7247;53.330;-1.180;2023-11-18T14:32:35;4.73;;;1.60;;
14326;SDS011;7247;53.330;-1.180;2023-11-18T14:35:04;4.77;;;1.47;;
14326;SDS011;7247;53.330;-1.180;2023-11-18T14:37:34;3.67;;;1.50;;
14326;SDS011;7247;53.330;-1.180;2023-11-18T14:40:01;4.10;;;1.77;;
14326;SDS011;7247;53.330;-1.180;2023-11-18T14:42:27;5.43;;;1.80;;
14326;SDS011;7247;53.330;-1.180;2023-11-18T14:44:54;5.77;;;1.90;;
14326;SDS011;7247;53.330;-1.180;2023-11-18T14:47:22;5.23;;;1.80;;